Time;durP1;ratioP1;P1;durP2;ratioP2;P2;SDS_P1;SDS_P2;PMS_P1;PMS_P2;Temp;Humidity;BMP_temperature;BMP_pressure;BME280_temperature;BME280_humidity;BME280_pressure;Samples;Min_cycle;Max_cycle;Signal;HPM_P1;HPM_P2
2021/07/12 00:05:47;;;;;;;5.95;3.53;;;30.20;29.90;;;;;;20753378;28;20058;-68
2021/07/12 00:15:49;;;;;;;8.82;3.80;;;30.10;29.80;;;;;;20751235;28;20092;-67
2021/07/12 00:25:51;;;;;;;7.60;3.70;;;29.90;29.90;;;;;;20750143;28;20087;-71
2021/07/12 00:35:52;;;;;;;9.40;3.80;;;29.60;30.40;;;;;;20749954;28;20046;-63
2021/07/12 00:45:54;;;;;;;9.20;2.92;;;29.50;30.60;;;;;;20749824;28;20116;-70
2021/07/12 00:55:56;;;;;;;9.40;3.42;;;29.40;30.40;;;;;;20749147;28;20077;-69
2021/07/12 01:05:58;;;;;;;13.80;4.28;;;29.20;30.40;;;;;;20751728;28;20100;-69
2021/07/12 01:16:20;;;;;;;5.35;3.50;;;29.10;30.90;;;;;;20747095;28;20489;-73
2021/07/12 01:26:40;;;;;;;8.37;3.20;;;28.90;31.20;;;;;;20748615;28;20086;-73
2021/07/12 01:36:56;;;;;;;7.00;3.57;;;28.70;31.50;;;;;;20763283;28;20049;-70
2021/07/12 01:47:09;;;;;;;6.20;3.50;;;28.60;31.80;;;;;;20762702;28;20132;-73
2021/07/12 01:57:36;;;;;;;7.22;2.55;;;28.40;32.30;;;;;;20791562;28;20060;-68
2021/07/12 02:07:39;;;;;;;3.95;2.05;;;28.30;30.30;;;;;;20770814;28;20058;-62
2021/07/12 02:17:42;;;;;;;3.47;2.22;;;28.00;30.00;;;;;;20759367;28;20119;-63
2021/07/12 02:27:44;;;;;;;3.10;1.85;;;27.90;30.00;;;;;;20758070;28;20057;-63
2021/07/12 02:37:46;;;;;;;3.13;2.25;;;27.60;30.60;;;;;;20756864;28;20096;-68
2021/07/12 02:47:48;;;;;;;3.45;1.95;;;27.30;31.50;;;;;;20756780;28;20061;-70
2021/07/12 02:57:50;;;;;;;2.83;2.17;;;27.10;32.00;;;;;;20756770;28;20046;-63
2021/07/12 03:08:05;;;;;;;3.92;2.35;;;27.00;32.60;;;;;;20754089;28;20050;-63
2021/07/12 03:18:20;;;;;;;4.88;2.28;;;26.90;32.70;;;;;;20754202;28;20054;-65
2021/07/12 03:28:23;;;;;;;3.47;2.45;;;26.60;33.10;;;;;;20754116;28;20054;-62
2021/07/12 03:38:25;;;;;;;3.35;2.30;;;26.30;33.60;;;;;;20753510;28;20061;-72
2021/07/12 03:48:40;;;;;;;4.88;2.25;;;26.20;34.30;;;;;;20752827;28;20054;-62
2021/07/12 03:58:42;;;;;;;5.00;1.92;;;26.00;34.30;;;;;;20752341;28;20490;-71
2021/07/12 04:08:51;;;;;;;4.75;2.55;;;25.70;34.90;;;;;;20751693;28;20049;-67
2021/07/12 04:19:04;;;;;;;5.82;2.22;;;25.70;36.30;;;;;;20751044;28;20103;-65
2021/07/12 04:29:09;;;;;;;4.82;2.88;;;25.60;35.40;;;;;;20749282;28;20053;-63
2021/07/12 04:39:18;;;;;;;6.00;2.13;;;25.40;35.80;;;;;;20748583;28;20058;-66
2021/07/12 04:49:28;;;;;;;4.28;2.35;;;25.10;36.80;;;;;;20747920;28;20048;-67
2021/07/12 04:59:38;;;;;;;2.97;1.83;;;25.00;37.20;;;;;;20749597;28;20061;-63
2021/07/12 05:09:41;;;;;;;3.42;1.92;;;24.90;37.10;;;;;;20762833;28;20131;-66
2021/07/12 05:19:44;;;;;;;5.10;3.08;;;24.70;37.40;;;;;;20763923;28;20053;-63
2021/07/12 05:29:46;;;;;;;5.63;2.10;;;24.60;37.70;;;;;;20763364;28;20072;-62
2021/07/12 05:39:50;;;;;;;4.72;1.95;;;24.50;37.50;;;;;;20762767;28;20054;-62
2021/07/12 05:49:52;;;;;;;5.55;1.90;;;24.50;38.00;;;;;;20761732;28;20046;-61
2021/07/12 05:59:54;;;;;;;3.65;2.00;;;24.30;37.60;;;;;;20774184;28;20388;-64
2021/07/12 06:09:57;;;;;;;4.90;2.20;;;24.40;37.50;;;;;;20760268;28;20046;-62
2021/07/12 06:20:00;;;;;;;3.13;1.70;;;24.40;37.60;;;;;;20758995;28;20145;-68
2021/07/12 06:30:05;;;;;;;3.17;2.10;;;24.50;36.80;;;;;;20758113;28;20457;-71
2021/07/12 06:40:07;;;;;;;3.60;1.58;;;24.70;36.80;;;;;;20758505;28;20053;-63
2021/07/12 06:50:10;;;;;;;3.08;1.50;;;24.90;36.30;;;;;;20757895;28;20073;-71
2021/07/12 07:00:12;;;;;;;4.50;1.70;;;25.10;36.00;;;;;;20757394;28;20054;-64
2021/07/12 07:10:17;;;;;;;3.08;1.42;;;25.20;35.50;;;;;;20755369;28;20045;-63
2021/07/12 07:20:20;;;;;;;3.17;1.30;;;25.30;35.40;;;;;;20755907;28;20463;-63
2021/07/12 07:30:22;;;;;;;3.17;2.20;;;25.60;34.80;;;;;;20754441;28;20419;-70
2021/07/12 07:40:26;;;;;;;2.70;1.60;;;25.70;33.60;;;;;;20753528;28;20108;-71
2021/07/12 07:50:29;;;;;;;3.35;1.40;;;25.90;33.60;;;;;;20752565;28;20046;-69
2021/07/12 08:00:31;;;;;;;;;;;25.90;33.30;;;;;;20751249;28;20505;-63
2021/07/12 08:10:34;;;;;;;4.57;1.60;;;26.00;33.20;;;;;;20751270;28;20020;-69
2021/07/12 08:20:38;;;;;;;3.22;1.90;;;26.30;32.40;;;;;;20751017;28;20050;-72
2021/07/12 08:30:39;;;;;;;2.80;1.67;;;26.60;31.30;;;;;;20747673;28;20046;-67
2021/07/12 08:40:41;;;;;;;3.58;1.45;;;27.20;31.20;;;;;;20742353;28;20064;-70
2021/07/12 08:50:45;;;;;;;3.10;1.77;;;26.70;31.00;;;;;;20748408;28;20501;-72
2021/07/12 09:00:53;;;;;;;3.60;1.58;;;26.70;30.70;;;;;;20752179;28;20081;-67
2021/07/12 09:11:04;;;;;;;4.68;1.60;;;26.50;31.90;;;;;;20771192;28;20058;-65
2021/07/12 09:21:16;;;;;;;3.03;1.80;;;27.00;30.30;;;;;;20787268;28;20556;-62
2021/07/12 09:31:27;;;;;;;5.88;1.80;;;27.30;29.50;;;;;;20707577;28;20046;-66
2021/07/12 09:41:30;;;;;;;3.08;1.80;;;27.90;29.70;;;;;;20664699;28;20055;-64
2021/07/12 09:51:34;;;;;;;6.25;1.75;;;28.40;28.20;;;;;;20670243;28;20050;-64
2021/07/12 10:01:36;;;;;;;4.32;1.70;;;28.50;28.20;;;;;;20678075;28;20057;-67
2021/07/12 10:11:39;;;;;;;2.85;1.80;;;28.60;27.40;;;;;;20676950;28;20138;-66
2021/07/12 10:21:48;;;;;;;2.70;2.03;;;28.90;27.90;;;;;;20739628;28;20112;-60
2021/07/12 10:32:10;;;;;;;4.47;1.60;;;28.70;27.40;;;;;;20839332;28;20417;-65
2021/07/12 10:42:11;;;;;;;2.50;1.52;;;28.60;28.90;;;;;;20822959;28;20123;-69
2021/07/12 10:52:42;;;;;;;9.82;2.28;;;28.40;27.20;;;;;;20839244;28;20502;-57
2021/07/12 11:02:44;;;;;;;8.02;2.22;;;28.50;28.20;;;;;;20837445;28;20085;-64
2021/07/12 11:12:53;;;;;;;4.18;1.85;;;28.60;26.90;;;;;;20838740;28;20050;-58
2021/07/12 11:22:54;;;;;;;12.82;3.00;;;28.60;26.90;;;;;;20835643;28;20446;-59
2021/07/12 11:32:56;;;;;;;7.13;2.28;;;28.30;29.50;;;;;;20834612;28;20056;-61
2021/07/12 11:42:58;;;;;;;16.50;2.67;;;28.40;29.40;;;;;;20835286;28;20085;-63
2021/07/12 11:53:06;;;;;;;8.48;2.05;;;28.20;28.30;;;;;;20833077;28;20461;-63
2021/07/12 12:03:09;;;;;;;4.00;1.73;;;28.20;28.20;;;;;;20831941;28;20053;-60
2021/07/12 12:13:16;;;;;;;3.75;1.70;;;28.10;26.70;;;;;;20831174;28;20050;-63
2021/07/12 12:23:28;;;;;;;5.15;1.73;;;28.10;27.40;;;;;;20812799;28;20050;-64
2021/07/12 12:33:33;;;;;;;2.65;1.90;;;28.00;27.60;;;;;;20830324;28;20095;-62
2021/07/12 12:43:37;;;;;;;4.03;1.73;;;28.00;27.20;;;;;;20829789;28;20096;-62
2021/07/12 12:53:38;;;;;;;3.80;1.63;;;27.90;26.80;;;;;;20831317;28;20179;-63
2021/07/12 13:03:40;;;;;;;3.05;1.50;;;28.00;25.90;;;;;;20831960;28;20060;-63
2021/07/12 13:13:41;;;;;;;3.75;2.13;;;28.00;25.10;;;;;;20829506;28;20053;-55
2021/07/12 13:23:46;;;;;;;2.97;1.55;;;28.10;25.10;;;;;;20832171;28;20140;-66
2021/07/12 13:33:48;;;;;;;5.43;1.48;;;28.20;22.60;;;;;;20845591;28;20050;-65
2021/07/12 13:43:51;;;;;;;2.22;1.20;;;28.20;23.20;;;;;;20844148;28;20132;-65
2021/07/12 13:53:54;;;;;;;2.15;1.45;;;28.20;22.80;;;;;;20843328;28;20084;-65
2021/07/12 14:03:56;;;;;;;4.00;1.40;;;28.20;22.80;;;;;;20842733;28;20494;-66
2021/07/12 14:14:01;;;;;;;3.50;1.52;;;28.30;21.50;;;;;;20842124;28;20513;-68
2021/07/12 14:24:05;;;;;;;4.57;1.48;;;28.10;22.10;;;;;;20841369;28;20118;-65
2021/07/12 14:34:07;;;;;;;2.75;0.77;;;28.30;21.50;;;;;;20839148;28;20048;-66
2021/07/12 14:44:11;;;;;;;2.70;0.70;;;28.10;20.80;;;;;;20838612;28;20053;-66
2021/07/12 14:54:12;;;;;;;2.78;0.70;;;28.20;21.30;;;;;;20838605;28;20045;-66
2021/07/12 15:04:14;;;;;;;3.25;1.05;;;28.10;21.90;;;;;;20820549;28;20136;-67
2021/07/12 15:14:17;;;;;;;1.23;0.70;;;28.00;22.50;;;;;;20838595;28;20368;-65
2021/07/12 15:24:20;;;;;;;1.73;0.82;;;28.10;23.40;;;;;;20836560;28;20158;-65
2021/07/12 15:34:22;;;;;;;5.15;1.40;;;27.80;23.80;;;;;;20835632;28;20053;-64
2021/07/12 15:44:25;;;;;;;4.18;1.20;;;27.80;24.20;;;;;;20835045;28;20105;-65
2021/07/12 15:54:27;;;;;;;3.67;1.33;;;27.60;24.50;;;;;;20832659;28;20421;-64
2021/07/12 16:04:30;;;;;;;2.28;1.20;;;27.50;24.50;;;;;;20831445;28;20050;-67
2021/07/12 16:14:33;;;;;;;3.05;1.35;;;27.30;24.50;;;;;;20831978;28;20490;-64
2021/07/12 16:24:35;;;;;;;4.53;1.50;;;27.30;25.10;;;;;;20831075;28;20052;-68
2021/07/12 16:34:42;;;;;;;4.45;1.45;;;27.10;25.20;;;;;;20830690;28;20053;-66
2021/07/12 16:44:44;;;;;;;3.35;1.50;;;27.10;25.10;;;;;;20830662;28;20060;-69
2021/07/12 16:54:48;;;;;;;2.67;1.40;;;27.00;24.90;;;;;;20831182;28;20072;-65
2021/07/12 17:04:50;;;;;;;4.05;1.50;;;27.00;25.50;;;;;;20829968;28;20130;-68
2021/07/12 17:14:52;;;;;;;1.88;1.40;;;26.80;25.80;;;;;;20830743;28;20049;-69
2021/07/12 17:24:54;;;;;;;2.85;1.30;;;26.80;26.10;;;;;;20829307;28;20146;-70
2021/07/12 17:34:56;;;;;;;6.32;1.25;;;26.70;25.40;;;;;;20830805;28;20429;-70
2021/07/12 17:45:03;;;;;;;3.95;0.95;;;26.60;25.10;;;;;;20829341;28;20551;-64
2021/07/12 17:55:06;;;;;;;3.78;1.20;;;26.40;25.10;;;;;;20826860;28;20045;-66
2021/07/12 18:05:08;;;;;;;3.25;1.48;;;26.40;25.30;;;;;;20827352;28;20140;-65
2021/07/12 18:15:11;;;;;;;2.03;1.00;;;26.50;25.90;;;;;;20836157;28;20050;-66
2021/07/12 18:25:13;;;;;;;4.15;1.00;;;26.40;25.80;;;;;;20840043;28;20387;-65
2021/07/12 18:35:15;;;;;;;1.85;0.70;;;26.30;25.50;;;;;;20840069;28;20048;-67
2021/07/12 18:45:17;;;;;;;6.10;0.98;;;26.40;25.70;;;;;;20822048;28;20060;-65
2021/07/12 18:55:19;;;;;;;2.28;0.70;;;26.20;26.00;;;;;;20840096;28;20050;-66
2021/07/12 19:05:22;;;;;;;2.00;0.80;;;26.10;26.20;;;;;;20838741;28;20136;-64
2021/07/12 19:15:25;;;;;;;6.25;1.10;;;26.00;26.80;;;;;;20838039;28;20046;-66
2021/07/12 19:25:32;;;;;;;3.72;1.00;;;25.70;26.80;;;;;;20836343;28;20524;-68
2021/07/12 19:35:33;;;;;;;3.25;0.90;;;25.70;27.10;;;;;;20836896;28;20394;-66
2021/07/12 19:45:35;;;;;;;3.28;1.25;;;25.40;27.40;;;;;;20834934;28;20081;-63
2021/07/12 19:55:36;;;;;;;3.27;1.17;;;25.30;28.10;;;;;;20833559;28;20458;-66
2021/07/12 20:05:40;;;;;;;2.72;0.77;;;25.10;27.90;;;;;;20832420;28;20058;-64
2021/07/12 20:15:42;;;;;;;3.72;0.93;;;24.90;28.30;;;;;;20841344;28;20045;-65
2021/07/12 20:25:45;;;;;;;2.45;0.70;;;24.60;28.80;;;;;;20831373;28;20107;-65
2021/07/12 20:35:47;;;;;;;1.40;0.75;;;24.50;29.10;;;;;;20831601;28;20055;-66
2021/07/12 20:45:49;;;;;;;2.65;0.80;;;24.20;29.10;;;;;;20830164;28;20490;-67
2021/07/12 20:55:51;;;;;;;2.80;0.85;;;24.10;29.40;;;;;;20829603;28;20046;-65
2021/07/12 21:05:53;;;;;;;3.50;0.90;;;23.90;29.50;;;;;;20811946;28;20489;-65
2021/07/12 21:15:55;;;;;;;;;;;23.70;29.80;;;;;;20811988;28;20190;-66
2021/07/12 21:25:57;;;;;;;2.30;0.80;;;23.40;29.90;;;;;;20827861;28;20277;-70
2021/07/12 21:36:00;;;;;;;3.10;0.90;;;23.20;30.20;;;;;;20828257;28;20045;-66
2021/07/12 21:46:04;;;;;;;3.95;0.80;;;23.10;30.20;;;;;;20832524;28;20056;-66
2021/07/12 21:56:06;;;;;;;1.90;0.70;;;22.90;30.50;;;;;;20847871;28;20056;-64
2021/07/12 22:06:08;;;;;;;5.00;0.90;;;22.90;30.60;;;;;;20846024;28;20053;-67
2021/07/12 22:16:10;;;;;;;1.90;0.70;;;22.80;30.70;;;;;;20843772;28;20050;-66
2021/07/12 22:26:11;;;;;;;3.40;0.67;;;22.70;31.00;;;;;;20840207;28;20054;-64
2021/07/12 22:36:13;;;;;;;1.30;0.60;;;22.60;31.70;;;;;;20839506;28;20049;-65
2021/07/12 22:46:17;;;;;;;1.90;0.80;;;22.40;31.40;;;;;;20838660;28;20050;-63
2021/07/12 22:56:19;;;;;;;1.60;0.80;;;22.30;31.60;;;;;;20836910;28;20056;-65
2021/07/12 23:06:23;;;;;;;1.70;0.60;;;22.20;31.90;;;;;;20836833;28;20049;-65
2021/07/12 23:16:26;;;;;;;1.55;0.60;;;22.10;32.00;;;;;;20836517;28;20049;-64
2021/07/12 23:26:28;;;;;;;2.57;0.90;;;22.10;32.10;;;;;;20835458;28;20057;-64
2021/07/12 23:36:30;;;;;;;2.00;0.80;;;22.00;32.50;;;;;;20835448;28;20046;-66
2021/07/12 23:46:32;;;;;;;0.70;0.50;;;21.80;33.00;;;;;;20833925;28;20068;-66
2021/07/12 23:56:33;;;;;;;2.80;0.70;;;21.80;33.20;;;;;;20833423;28;20125;-66
